createdAt,value
2018-09-25T00:01:37.597Z,7.27
2018-09-25T00:04:12.629Z,7.21
2018-09-25T00:06:47.217Z,7.11
2018-09-25T00:09:21.586Z,7.10
2018-09-25T00:11:57.206Z,7.07
2018-09-25T00:14:32.402Z,7.05
2018-09-25T00:17:06.779Z,6.91
2018-09-25T00:19:41.323Z,7.02
2018-09-25T00:22:16.384Z,7.08
2018-09-25T00:24:50.851Z,7.05
2018-09-25T00:27:25.598Z,7.00
2018-09-25T00:29:59.523Z,7.05
2018-09-25T00:32:33.499Z,7.02
2018-09-25T00:35:08.192Z,7.05
2018-09-25T00:37:42.529Z,7.06
2018-09-25T00:40:16.530Z,7.07
2018-09-25T00:42:50.949Z,7.08
2018-09-25T00:45:25.306Z,7.08
2018-09-25T00:47:59.957Z,6.93
2018-09-25T00:50:34.511Z,6.99
2018-09-25T00:53:08.908Z,7.01
2018-09-25T00:55:43.252Z,6.89
2018-09-25T00:58:18.416Z,6.74
2018-09-25T01:00:52.289Z,6.65
2018-09-25T01:03:27.340Z,6.59
2018-09-25T01:06:02.152Z,6.60
2018-09-25T01:08:36.747Z,6.46
2018-09-25T01:11:10.577Z,6.46
2018-09-25T01:13:46.117Z,6.41
2018-09-25T01:16:20.190Z,6.43
2018-09-25T01:18:55.288Z,6.38
2018-09-25T01:21:29.443Z,6.40
2018-09-25T01:24:03.395Z,6.43
2018-09-25T01:26:38.493Z,6.39
2018-09-25T01:29:12.817Z,6.48
2018-09-25T01:31:47.845Z,6.39
2018-09-25T01:34:22.156Z,6.40
2018-09-25T01:36:56.516Z,6.43
2018-09-25T01:39:31.599Z,6.40
2018-09-25T01:42:05.592Z,6.39
2018-09-25T01:44:40.494Z,6.47
2018-09-25T01:47:17.035Z,6.51
2018-09-25T01:49:50.988Z,6.54
2018-09-25T01:52:25.166Z,6.51
2018-09-25T01:54:59.409Z,6.43
2018-09-25T01:57:34.929Z,6.48
2018-09-25T02:00:09.273Z,6.34
2018-09-25T02:02:44.258Z,6.33
2018-09-25T02:05:18.736Z,6.21
2018-09-25T02:07:53.910Z,6.12
2018-09-25T02:10:27.702Z,6.14
2018-09-25T02:13:02.572Z,6.10
2018-09-25T02:15:36.537Z,6.02
2018-09-25T02:18:12.316Z,6.06
2018-09-25T02:20:46.286Z,6.08
2018-09-25T02:23:21.841Z,6.11
2018-09-25T02:25:56.117Z,6.10
2018-09-25T02:28:31.769Z,5.88
2018-09-25T02:31:05.617Z,5.77
2018-09-25T02:33:40.424Z,5.77
2018-09-25T02:36:14.291Z,5.64
2018-09-25T02:38:48.546Z,5.60
2018-09-25T02:41:24.121Z,5.55
2018-09-25T02:43:58.934Z,5.57
2018-09-25T02:46:33.762Z,5.56
2018-09-25T02:49:08.705Z,5.40
2018-09-25T02:51:43.371Z,5.55
2018-09-25T02:54:17.784Z,5.43
2018-09-25T02:56:52.193Z,5.39
2018-09-25T02:59:28.357Z,5.42
2018-09-25T03:02:02.328Z,5.37
2018-09-25T03:04:36.341Z,5.31
2018-09-25T03:07:11.880Z,5.32
2018-09-25T03:09:47.054Z,5.27
2018-09-25T03:12:21.366Z,5.22
2018-09-25T03:14:55.591Z,5.19
2018-09-25T03:17:29.733Z,5.11
2018-09-25T03:20:04.240Z,5.13
2018-09-25T03:22:38.169Z,5.12
2018-09-25T03:25:12.595Z,5.06
2018-09-25T03:27:46.736Z,5.07
2018-09-25T03:30:20.771Z,5.01
2018-09-25T03:32:55.424Z,5.08
2018-09-25T03:35:29.940Z,5.22
2018-09-25T03:38:04.726Z,5.11
2018-09-25T03:40:41.109Z,5.08
2018-09-25T03:43:17.260Z,5.09
2018-09-25T03:45:52.715Z,5.12
2018-09-25T03:48:27.145Z,5.22
2018-09-25T03:51:00.890Z,5.20
2018-09-25T03:53:34.741Z,5.25
2018-09-25T03:56:08.831Z,5.20
2018-09-25T03:58:42.640Z,5.15
2018-09-25T04:01:16.931Z,5.12
2018-09-25T04:03:52.690Z,5.18
2018-09-25T04:06:27.396Z,5.09
2018-09-25T04:09:01.665Z,5.24
2018-09-25T04:11:36.787Z,5.14
2018-09-25T04:14:11.390Z,5.11
2018-09-25T04:16:46.083Z,5.24
2018-09-25T04:19:21.186Z,5.24
2018-09-25T04:21:55.645Z,5.29
2018-09-25T04:24:30.481Z,5.23
2018-09-25T04:27:06.891Z,5.03
2018-09-25T04:29:41.864Z,5.00
2018-09-25T04:32:16.417Z,5.03
2018-09-25T04:34:50.404Z,5.06
2018-09-25T04:37:24.228Z,5.04
2018-09-25T04:39:59.936Z,5.04
2018-09-25T04:42:34.891Z,4.98
2018-09-25T04:45:09.420Z,5.10
2018-09-25T04:47:44.258Z,5.12
2018-09-25T04:50:18.636Z,5.15
2018-09-25T04:52:55.234Z,5.19
2018-09-25T04:55:29.009Z,5.11
2018-09-25T04:58:04.908Z,4.94
2018-09-25T05:00:39.687Z,4.84
2018-09-25T05:03:14.573Z,4.88
2018-09-25T05:05:49.585Z,4.84
2018-09-25T05:08:23.513Z,4.94
2018-09-25T05:10:57.409Z,5.08
2018-09-25T05:13:31.268Z,4.91
2018-09-25T05:16:05.589Z,4.87
2018-09-25T05:18:39.395Z,4.86
2018-09-25T05:21:13.540Z,4.83
2018-09-25T05:23:49.590Z,4.74
2018-09-25T05:26:25.290Z,4.71
2018-09-25T05:28:59.286Z,4.73
2018-09-25T05:31:33.941Z,4.57
2018-09-25T05:34:08.958Z,4.63
2018-09-25T05:36:43.316Z,4.66
2018-09-25T05:39:18.693Z,4.76
2018-09-25T05:41:53.758Z,4.70
2018-09-25T05:44:27.934Z,4.78
2018-09-25T05:47:04.368Z,4.79
2018-09-25T05:49:39.321Z,4.67
2018-09-25T05:52:13.369Z,4.66
2018-09-25T05:54:48.385Z,4.76
2018-09-25T05:57:23.714Z,4.85
2018-09-25T05:59:59.265Z,4.83
2018-09-25T06:02:33.851Z,4.82
2018-09-25T06:05:09.915Z,4.59
2018-09-25T06:07:45.288Z,4.68
2018-09-25T06:10:19.522Z,4.73
2018-09-25T06:12:53.360Z,4.77
2018-09-25T06:15:29.237Z,4.90
2018-09-25T06:18:03.475Z,4.92
2018-09-25T06:20:37.852Z,4.71
2018-09-25T06:23:13.660Z,4.74
2018-09-25T06:25:48.595Z,4.67
2018-09-25T06:28:22.868Z,4.66
2018-09-25T06:30:58.702Z,4.74
2018-09-25T06:33:33.516Z,4.75
2018-09-25T06:36:08.488Z,4.64
2018-09-25T06:38:43.872Z,4.81
2018-09-25T06:41:18.180Z,4.83
2018-09-25T06:43:52.697Z,5.06
2018-09-25T06:46:26.653Z,5.31
2018-09-25T06:49:01.892Z,5.45
2018-09-25T06:51:36.339Z,5.41
2018-09-25T06:54:10.271Z,5.52
2018-09-25T06:56:45.087Z,5.64
2018-09-25T06:59:19.843Z,5.69
2018-09-25T07:01:53.929Z,5.63
2018-09-25T07:04:29.024Z,5.77
2018-09-25T07:07:03.205Z,5.95
2018-09-25T07:09:37.264Z,5.97
2018-09-25T07:12:11.758Z,5.83
2018-09-25T07:14:45.703Z,6.13
2018-09-25T07:17:20.104Z,6.27
2018-09-25T07:19:54.525Z,6.29
2018-09-25T07:22:29.229Z,6.42
2018-09-25T07:25:03.901Z,6.51
2018-09-25T07:27:38.583Z,6.59
2018-09-25T07:30:14.329Z,6.52
2018-09-25T07:32:48.012Z,6.62
2018-09-25T07:35:22.312Z,6.71
2018-09-25T07:37:56.578Z,6.85
2018-09-25T07:40:31.347Z,7.02
2018-09-25T07:43:05.631Z,7.06
2018-09-25T07:45:40.429Z,7.07
2018-09-25T07:48:15.427Z,7.21
2018-09-25T07:50:50.904Z,7.19
2018-09-25T07:53:25.138Z,7.49
2018-09-25T07:55:59.950Z,7.68
2018-09-25T07:58:35.302Z,7.80
2018-09-25T08:01:11.271Z,7.82
2018-09-25T08:03:45.859Z,8.01
2018-09-25T08:06:20.103Z,7.91
2018-09-25T08:08:55.112Z,8.01
2018-09-25T08:11:30.465Z,8.21
2018-09-25T08:14:05.329Z,8.40
2018-09-25T08:16:40.299Z,8.52
2018-09-25T08:19:15.604Z,8.73
2018-09-25T08:21:49.669Z,9.01
2018-09-25T08:24:23.935Z,9.13
2018-09-25T08:26:58.834Z,9.14
2018-09-25T08:29:33.201Z,9.11
2018-09-25T08:32:07.659Z,9.29
2018-09-25T08:34:41.853Z,9.38
2018-09-25T08:37:16.958Z,9.46
2018-09-25T08:39:51.310Z,9.74
2018-09-25T08:42:26.497Z,9.91
2018-09-25T08:45:02.184Z,10.13
2018-09-25T08:47:36.153Z,10.32
2018-09-25T08:50:11.264Z,10.41
2018-09-25T08:52:45.722Z,10.59
2018-09-25T08:55:19.701Z,10.76
2018-09-25T08:57:53.781Z,10.58
2018-09-25T09:00:29.145Z,10.11
2018-09-25T09:03:03.118Z,10.54
2018-09-25T09:05:37.065Z,11.00
2018-09-25T09:08:11.602Z,11.06
2018-09-25T09:10:46.273Z,11.30
2018-09-25T09:13:21.558Z,11.05
2018-09-25T09:15:56.621Z,11.08
2018-09-25T09:18:30.870Z,11.15
2018-09-25T09:21:05.954Z,11.51
2018-09-25T09:23:40.672Z,11.69
2018-09-25T09:26:15.553Z,11.78
2018-09-25T09:28:50.336Z,11.51
2018-09-25T09:31:25.942Z,12.14
2018-09-25T09:33:59.708Z,12.00
2018-09-25T09:36:34.522Z,12.18
2018-09-25T09:39:08.326Z,12.79
2018-09-25T09:41:43.962Z,12.79
2018-09-25T09:44:18.506Z,12.49
2018-09-25T09:46:52.267Z,12.48
2018-09-25T09:49:26.730Z,12.66
2018-09-25T09:52:03.501Z,13.17
2018-09-25T09:54:37.807Z,13.71
2018-09-25T09:57:12.137Z,13.84
2018-09-25T09:59:46.800Z,14.13
2018-09-25T10:02:20.794Z,13.26
2018-09-25T10:04:54.957Z,13.49
2018-09-25T10:07:29.910Z,13.71
2018-09-25T10:10:04.986Z,13.58
2018-09-25T10:12:39.260Z,13.46
2018-09-25T10:15:14.565Z,13.54
2018-09-25T10:17:49.356Z,13.50
2018-09-25T10:20:24.033Z,13.38
2018-09-25T10:22:59.532Z,13.33
2018-09-25T10:25:34.170Z,13.00
2018-09-25T10:28:10.018Z,13.24
2018-09-25T10:30:44.333Z,13.12
2018-09-25T10:33:19.176Z,13.21
2018-09-25T10:35:54.265Z,13.04
2018-09-25T10:38:29.144Z,13.77
2018-09-25T10:41:03.204Z,14.45
2018-09-25T10:43:38.114Z,15.15
2018-09-25T10:46:12.016Z,15.20
2018-09-25T10:48:45.668Z,15.45
2018-09-25T10:51:20.140Z,16.11
2018-09-25T10:53:54.602Z,16.09
2018-09-25T10:56:28.807Z,15.89
2018-09-25T10:59:03.540Z,16.29
2018-09-25T11:01:37.823Z,16.72
2018-09-25T11:04:13.451Z,16.98
2018-09-25T11:06:48.481Z,17.64
2018-09-25T11:09:22.822Z,17.18
2018-09-25T11:11:56.915Z,17.20
2018-09-25T11:14:32.183Z,17.33
2018-09-25T11:17:06.884Z,17.21
2018-09-25T11:19:41.308Z,17.73
2018-09-25T11:22:15.257Z,17.73
2018-09-25T11:24:50.695Z,17.49
2018-09-25T11:27:24.926Z,17.36
2018-09-25T11:30:00.711Z,18.21
2018-09-25T11:32:35.982Z,18.86
2018-09-25T11:35:12.147Z,18.66
2018-09-25T11:37:46.129Z,18.47
2018-09-25T11:40:20.034Z,18.78
2018-09-25T11:42:56.720Z,18.68
2018-09-25T11:45:31.624Z,18.69
2018-09-25T11:48:05.785Z,18.97
2018-09-25T11:50:39.636Z,18.93
2018-09-25T11:53:13.999Z,18.95
2018-09-25T11:55:48.998Z,19.36
2018-09-25T11:58:23.589Z,19.95
2018-09-25T12:00:58.180Z,19.85
2018-09-25T12:03:32.785Z,20.56
2018-09-25T12:06:08.823Z,19.47
2018-09-25T12:08:42.879Z,19.85
2018-09-25T12:11:17.037Z,19.27
2018-09-25T12:13:51.396Z,20.32
2018-09-25T12:16:25.470Z,19.56
2018-09-25T12:18:59.709Z,19.88
2018-09-25T12:21:34.365Z,19.51
2018-09-25T12:24:09.131Z,19.14
2018-09-25T12:26:44.918Z,18.89
2018-09-25T12:29:19.566Z,18.28
2018-09-25T12:31:54.464Z,18.15
2018-09-25T12:34:29.285Z,18.35
2018-09-25T12:37:04.125Z,18.14
2018-09-25T12:39:38.175Z,17.93
2018-09-25T12:42:12.221Z,18.03
2018-09-25T12:44:46.861Z,18.49
2018-09-25T12:47:21.730Z,18.86
2018-09-25T12:49:56.245Z,18.99
2018-09-25T12:52:30.769Z,19.01
2018-09-25T12:55:04.779Z,19.00
2018-09-25T12:57:39.264Z,19.08
2018-09-25T13:00:13.574Z,19.60
2018-09-25T13:02:48.188Z,19.81
2018-09-25T13:05:22.719Z,19.07
2018-09-25T13:07:58.481Z,19.01
2018-09-25T13:10:32.803Z,18.57
2018-09-25T13:13:07.867Z,19.05
2018-09-25T13:15:42.999Z,19.63
2018-09-25T13:18:18.967Z,20.08
2018-09-25T13:20:53.773Z,20.45
2018-09-25T13:23:28.084Z,20.96
2018-09-25T13:26:03.020Z,21.38
2018-09-25T13:28:38.706Z,21.18
2018-09-25T13:31:14.358Z,21.46
2018-09-25T13:33:49.025Z,21.73
2018-09-25T13:36:23.042Z,21.48
2018-09-25T13:38:57.003Z,20.88
2018-09-25T13:41:32.133Z,20.85
2018-09-25T13:44:07.072Z,21.05
2018-09-25T13:46:41.638Z,21.09
2018-09-25T13:49:16.169Z,21.34
2018-09-25T13:51:50.432Z,21.64
2018-09-25T13:54:24.592Z,20.94
2018-09-25T13:56:58.766Z,20.62
2018-09-25T13:59:33.647Z,20.77
2018-09-25T14:02:08.631Z,20.70
2018-09-25T14:04:43.565Z,20.36
2018-09-25T14:07:18.081Z,20.43
2018-09-25T14:09:52.338Z,20.12
2018-09-25T14:12:27.922Z,20.14
2018-09-25T14:15:03.558Z,20.36
2018-09-25T14:17:38.014Z,20.52
2018-09-25T14:20:12.653Z,20.23
2018-09-25T14:22:47.115Z,20.53
2018-09-25T14:25:21.944Z,20.16
2018-09-25T14:27:56.416Z,20.21
2018-09-25T14:30:31.363Z,20.48
2018-09-25T14:33:05.633Z,21.10
2018-09-25T14:35:39.729Z,21.53
2018-09-25T14:38:14.265Z,21.49
2018-09-25T14:40:48.550Z,22.22
2018-09-25T14:43:23.773Z,21.56
2018-09-25T14:45:58.631Z,20.89
2018-09-25T14:48:34.307Z,21.19
2018-09-25T14:51:08.998Z,21.58
2018-09-25T14:53:43.660Z,21.96
2018-09-25T14:56:17.948Z,21.95
2018-09-25T14:58:53.333Z,22.10
2018-09-25T15:01:28.438Z,22.54
2018-09-25T15:04:03.423Z,22.64
2018-09-25T15:06:38.026Z,23.24
2018-09-25T15:09:14.560Z,23.73
2018-09-25T15:11:49.514Z,24.01
2018-09-25T15:14:23.459Z,24.40
2018-09-25T15:16:57.916Z,24.70
2018-09-25T15:19:32.088Z,23.97
2018-09-25T15:22:07.997Z,24.23
2018-09-25T15:24:43.861Z,23.89
2018-09-25T15:27:17.945Z,23.74
2018-09-25T15:29:52.729Z,23.88
2018-09-25T15:32:27.675Z,23.96
2018-09-25T15:35:01.793Z,24.27
2018-09-25T15:37:35.885Z,24.94
2018-09-25T15:40:10.355Z,25.32
2018-09-25T15:42:45.124Z,24.78
2018-09-25T15:45:20.288Z,24.83
2018-09-25T15:47:54.513Z,24.61
2018-09-25T15:50:29.039Z,24.57
2018-09-25T15:53:03.218Z,25.32
2018-09-25T15:55:38.198Z,25.97
2018-09-25T15:58:12.227Z,25.20
2018-09-25T16:00:46.997Z,24.66
2018-09-25T16:03:21.332Z,24.95
2018-09-25T16:05:56.353Z,25.44
2018-09-25T16:08:30.945Z,25.48
2018-09-25T16:11:05.151Z,25.75
2018-09-25T16:13:39.573Z,25.95
2018-09-25T16:16:14.205Z,25.54
2018-09-25T16:18:48.680Z,25.34
2018-09-25T16:21:22.958Z,24.70
2018-09-25T16:23:58.264Z,24.84
2018-09-25T16:26:32.728Z,24.46
2018-09-25T16:29:08.176Z,24.08
2018-09-25T16:31:43.677Z,23.73
2018-09-25T16:34:18.504Z,22.95
2018-09-25T16:36:54.132Z,22.94
2018-09-25T16:39:28.771Z,22.07
2018-09-25T16:42:03.925Z,22.14
2018-09-25T16:44:39.038Z,21.78
2018-09-25T16:47:13.671Z,21.57
2018-09-25T16:49:49.097Z,20.88
2018-09-25T16:52:23.730Z,20.43
2018-09-25T16:54:58.802Z,20.56
2018-09-25T16:57:34.484Z,20.82
2018-09-25T17:00:09.189Z,20.33
2018-09-25T17:02:43.502Z,19.77
2018-09-25T17:05:17.887Z,19.25
2018-09-25T17:07:51.800Z,18.96
2018-09-25T17:10:27.104Z,18.69
2018-09-25T17:13:02.162Z,18.13
2018-09-25T17:15:37.193Z,17.95
2018-09-25T17:18:13.797Z,17.76
2018-09-25T17:20:55.322Z,17.15
2018-09-25T17:23:28.841Z,17.18
2018-09-25T17:26:03.200Z,16.81
2018-09-25T17:28:38.852Z,16.55
2018-09-25T17:31:13.168Z,16.31
2018-09-25T17:33:48.195Z,15.95
2018-09-25T17:36:22.681Z,15.67
2018-09-25T17:38:56.998Z,15.31
2018-09-25T17:41:31.758Z,14.93
2018-09-25T17:44:08.002Z,14.69
2018-09-25T17:46:43.671Z,14.58
2018-09-25T17:49:18.069Z,14.54
2018-09-25T17:51:52.685Z,14.50
2018-09-25T17:54:27.973Z,14.27
2018-09-25T17:57:04.128Z,14.13
2018-09-25T17:59:38.731Z,14.08
2018-09-25T18:02:13.278Z,14.15
2018-09-25T18:04:48.896Z,14.17
2018-09-25T18:07:23.315Z,13.93
2018-09-25T18:09:58.369Z,13.94
2018-09-25T18:12:32.448Z,14.17
2018-09-25T18:15:07.089Z,14.08
2018-09-25T18:17:41.575Z,13.71
2018-09-25T18:20:16.023Z,13.88
2018-09-25T18:22:50.873Z,13.74
2018-09-25T18:25:25.631Z,13.80
2018-09-25T18:28:00.140Z,13.37
2018-09-25T18:30:34.187Z,13.29
2018-09-25T18:33:09.289Z,13.17
2018-09-25T18:35:44.405Z,13.13
2018-09-25T18:38:18.466Z,13.21
2018-09-25T18:40:53.138Z,13.13
2018-09-25T18:43:28.026Z,13.03
2018-09-25T18:46:03.713Z,12.89
2018-09-25T18:48:38.649Z,12.77
2018-09-25T18:51:13.156Z,12.63
2018-09-25T18:53:47.080Z,12.38
2018-09-25T18:56:23.547Z,12.31
2018-09-25T18:58:57.544Z,12.33
2018-09-25T19:01:32.248Z,12.16
2018-09-25T19:04:06.278Z,12.12
2018-09-25T19:06:40.678Z,12.08
2018-09-25T19:09:15.248Z,11.76
2018-09-25T19:11:50.114Z,11.82
2018-09-25T19:14:25.661Z,11.95
2018-09-25T19:17:00.533Z,11.58
2018-09-25T19:19:34.985Z,11.59
2018-09-25T19:22:10.526Z,11.74
2018-09-25T19:24:45.200Z,11.76
2018-09-25T19:27:20.148Z,11.45
2018-09-25T19:29:55.219Z,11.31
2018-09-25T19:32:30.134Z,11.30
2018-09-25T19:35:05.308Z,11.13
2018-09-25T19:37:40.405Z,11.25
2018-09-25T19:40:15.289Z,11.26
2018-09-25T19:42:50.122Z,11.18
2018-09-25T19:45:24.278Z,11.28
2018-09-25T19:48:00.553Z,11.04
2018-09-25T19:50:34.538Z,10.95
2018-09-25T19:53:08.692Z,10.84
2018-09-25T19:55:43.318Z,10.54
2018-09-25T19:58:18.864Z,10.54
2018-09-25T20:00:52.994Z,10.55
2018-09-25T20:03:27.119Z,10.60
2018-09-25T20:06:02.661Z,10.50
2018-09-25T20:08:37.855Z,10.54
2018-09-25T20:11:12.765Z,10.67
2018-09-25T20:13:47.158Z,10.86
2018-09-25T20:16:23.091Z,10.68
2018-09-25T20:18:57.744Z,10.50
2018-09-25T20:21:32.153Z,10.51
2018-09-25T20:24:06.997Z,10.41
2018-09-25T20:26:41.488Z,10.34
2018-09-25T20:29:16.305Z,10.32
2018-09-25T20:31:50.216Z,10.18
2018-09-25T20:34:24.776Z,10.19
2018-09-25T20:36:59.421Z,10.10
2018-09-25T20:39:34.869Z,9.98
2018-09-25T20:42:09.549Z,9.88
2018-09-25T20:44:43.919Z,9.72
2018-09-25T20:47:18.990Z,9.66
2018-09-25T20:49:53.524Z,9.61
2018-09-25T20:52:28.157Z,9.73
2018-09-25T20:55:03.680Z,9.66
2018-09-25T20:57:39.877Z,9.73
2018-09-25T21:00:15.222Z,9.79
2018-09-25T21:02:49.145Z,9.68
2018-09-25T21:05:24.129Z,9.83
2018-09-25T21:07:58.493Z,9.53
2018-09-25T21:10:34.748Z,9.30
2018-09-25T21:13:08.525Z,9.29
2018-09-25T21:15:43.690Z,9.17
2018-09-25T21:18:18.815Z,9.07
2018-09-25T21:20:53.401Z,9.11
2018-09-25T21:23:27.550Z,9.08
2018-09-25T21:26:01.489Z,8.85
2018-09-25T21:28:36.582Z,8.95
2018-09-25T21:31:10.638Z,8.91
2018-09-25T21:33:46.234Z,8.83
2018-09-25T21:36:20.839Z,8.81
2018-09-25T21:38:55.050Z,8.77
2018-09-25T21:41:29.245Z,8.87
2018-09-25T21:44:03.445Z,8.71
2018-09-25T21:46:37.815Z,8.62
2018-09-25T21:49:12.651Z,8.47
2018-09-25T21:51:48.924Z,8.45
2018-09-25T21:54:23.122Z,8.49
2018-09-25T21:56:58.134Z,8.51
2018-09-25T21:59:32.480Z,8.45
2018-09-25T22:02:06.679Z,8.39
2018-09-25T22:04:41.636Z,8.32
2018-09-25T22:07:16.048Z,8.40
2018-09-25T22:09:51.456Z,8.43
2018-09-25T22:12:25.948Z,8.28
2018-09-25T22:15:00.273Z,8.22
2018-09-25T22:17:34.229Z,8.23
2018-09-25T22:20:08.381Z,8.18
2018-09-25T22:22:42.669Z,8.09
2018-09-25T22:25:16.867Z,8.09
2018-09-25T22:27:51.673Z,8.13
2018-09-25T22:30:26.340Z,7.90
2018-09-25T22:33:01.709Z,7.87
2018-09-25T22:35:35.580Z,7.89
2018-09-25T22:38:10.113Z,7.95
2018-09-25T22:40:45.249Z,7.92
2018-09-25T22:43:19.710Z,7.82
2018-09-25T22:45:54.063Z,7.84
2018-09-25T22:48:29.001Z,7.78
2018-09-25T22:51:03.386Z,7.85
2018-09-25T22:53:37.905Z,7.75
2018-09-25T22:56:11.923Z,7.58
2018-09-25T22:58:47.768Z,7.55
2018-09-25T23:01:22.110Z,7.68
2018-09-25T23:03:56.505Z,7.61
2018-09-25T23:06:31.492Z,7.72
2018-09-25T23:09:06.140Z,7.74
2018-09-25T23:11:40.606Z,7.68
2018-09-25T23:14:14.717Z,7.55
2018-09-25T23:16:48.995Z,7.50
2018-09-25T23:19:23.801Z,7.49
2018-09-25T23:21:58.046Z,7.48
2018-09-25T23:24:33.063Z,7.48
2018-09-25T23:27:08.153Z,7.45
2018-09-25T23:29:42.452Z,7.35
2018-09-25T23:32:17.062Z,7.35
2018-09-25T23:34:51.937Z,7.07
2018-09-25T23:37:26.747Z,7.22
2018-09-25T23:40:00.058Z,7.16
2018-09-25T23:42:35.915Z,7.03
2018-09-25T23:47:17.626Z,7.05
2018-09-25T23:49:56.127Z,6.91
2018-09-25T23:52:31.821Z,6.83
2018-09-25T23:55:05.422Z,6.91
2018-09-25T23:57:39.744Z,6.84
